createdAt,value
2018-09-27T00:01:50.547Z,5.25
2018-09-27T00:04:22.611Z,4.97
2018-09-27T00:06:54.694Z,7.90
2018-09-27T00:09:26.739Z,6.00
2018-09-27T00:11:58.836Z,6.80
2018-09-27T00:14:30.869Z,4.47
2018-09-27T00:17:02.916Z,6.10
2018-09-27T00:19:35.007Z,5.05
2018-09-27T00:22:07.071Z,5.60
2018-09-27T00:24:39.107Z,5.95
2018-09-27T00:27:11.199Z,4.85
2018-09-27T00:29:43.244Z,5.97
2018-09-27T00:32:15.308Z,5.53
2018-09-27T00:34:49.215Z,5.83
2018-09-27T00:37:21.275Z,6.80
2018-09-27T00:39:53.329Z,5.65
2018-09-27T00:42:25.407Z,5.17
2018-09-27T00:44:57.478Z,6.10
2018-09-27T00:47:29.580Z,5.17
2018-09-27T00:50:01.663Z,5.58
2018-09-27T00:52:33.739Z,5.05
2018-09-27T00:55:05.900Z,5.00
2018-09-27T00:57:37.983Z,6.50
2018-09-27T01:00:10.032Z,5.03
2018-09-27T01:02:42.148Z,6.25
2018-09-27T01:05:14.219Z,5.17
2018-09-27T01:07:46.262Z,4.70
2018-09-27T01:10:18.300Z,4.78
2018-09-27T01:12:50.391Z,5.95
2018-09-27T01:15:22.444Z,6.45
2018-09-27T01:17:54.484Z,4.90
2018-09-27T01:20:26.617Z,4.90
2018-09-27T01:22:58.662Z,5.20
2018-09-27T01:25:30.767Z,5.70
2018-09-27T01:28:02.787Z,7.25
2018-09-27T01:30:35.008Z,6.12
2018-09-27T01:33:07.066Z,5.75
2018-09-27T01:35:39.092Z,7.20
2018-09-27T01:38:11.172Z,5.28
2018-09-27T01:40:43.246Z,5.10
2018-09-27T01:43:15.310Z,7.58
2018-09-27T01:45:47.385Z,6.75
2018-09-27T01:48:19.434Z,7.83
2018-09-27T01:50:51.503Z,5.72
2018-09-27T01:53:23.640Z,7.70
2018-09-27T01:55:55.675Z,7.30
2018-09-27T01:58:27.854Z,5.80
2018-09-27T02:00:59.906Z,6.33
2018-09-27T02:03:32.025Z,8.33
2018-09-27T02:06:04.059Z,6.12
2018-09-27T02:08:36.105Z,5.87
2018-09-27T02:11:08.169Z,7.28
2018-09-27T02:13:40.320Z,5.35
2018-09-27T02:16:12.349Z,8.05
2018-09-27T02:18:44.411Z,7.65
2018-09-27T02:21:16.492Z,5.10
2018-09-27T02:23:48.633Z,4.95
2018-09-27T02:26:20.699Z,7.70
2018-09-27T02:28:52.807Z,6.62
2018-09-27T02:31:24.856Z,6.22
2018-09-27T02:33:56.938Z,7.83
2018-09-27T02:36:28.980Z,6.33
2018-09-27T02:39:01.040Z,5.83
2018-09-27T02:41:33.115Z,9.08
2018-09-27T02:44:05.216Z,6.97
2018-09-27T02:46:37.263Z,7.08
2018-09-27T02:49:09.292Z,6.95
2018-09-27T02:51:41.364Z,5.05
2018-09-27T02:54:13.418Z,5.75
2018-09-27T02:56:45.527Z,8.45
2018-09-27T02:59:17.557Z,6.45
2018-09-27T03:01:49.611Z,6.03
2018-09-27T03:04:21.700Z,5.10
2018-09-27T03:06:53.768Z,8.15
2018-09-27T03:09:25.816Z,6.35
2018-09-27T03:11:57.950Z,6.28
2018-09-27T03:14:30.045Z,8.08
2018-09-27T03:17:02.164Z,9.80
2018-09-27T03:19:34.213Z,6.30
2018-09-27T03:22:06.280Z,6.37
2018-09-27T03:24:38.353Z,5.58
2018-09-27T03:27:10.383Z,6.42
2018-09-27T03:29:42.437Z,7.08
2018-09-27T03:34:52.455Z,5.37
2018-09-27T03:37:24.491Z,7.42
2018-09-27T03:39:56.592Z,7.40
2018-09-27T03:42:28.613Z,6.05
2018-09-27T03:45:00.705Z,6.35
2018-09-27T03:47:32.783Z,6.92
2018-09-27T03:50:04.832Z,6.33
2018-09-27T03:52:36.956Z,5.50
2018-09-27T03:55:09.003Z,5.83
2018-09-27T03:57:41.092Z,5.95
2018-09-27T04:00:13.168Z,5.05
2018-09-27T04:02:45.247Z,5.87
2018-09-27T04:05:17.394Z,5.83
2018-09-27T04:07:49.437Z,5.35
2018-09-27T04:10:21.583Z,5.30
2018-09-27T04:12:53.643Z,6.37
2018-09-27T04:15:25.692Z,4.55
2018-09-27T04:17:57.835Z,7.65
2018-09-27T04:20:29.880Z,10.15
2018-09-27T04:23:01.944Z,8.15
2018-09-27T04:25:34.034Z,5.45
2018-09-27T04:28:06.099Z,7.53
2018-09-27T04:30:38.156Z,7.58
2018-09-27T04:33:10.207Z,7.78
2018-09-27T04:35:42.294Z,6.65
2018-09-27T04:38:14.384Z,8.05
2018-09-27T04:40:46.445Z,5.75
2018-09-27T04:43:18.496Z,7.65
2018-09-27T04:45:50.923Z,6.30
2018-09-27T04:48:22.989Z,5.95
2018-09-27T04:50:55.094Z,6.12
2018-09-27T04:53:27.199Z,6.03
2018-09-27T04:55:59.335Z,7.03
2018-09-27T04:58:31.445Z,5.72
2018-09-27T05:01:03.590Z,5.85
2018-09-27T05:03:35.908Z,7.75
2018-09-27T05:06:08.060Z,6.33
2018-09-27T05:08:40.138Z,7.33
2018-09-27T05:11:12.272Z,6.90
2018-09-27T05:13:44.418Z,6.12
2018-09-27T05:16:16.607Z,8.33
2018-09-27T05:18:48.770Z,10.50
2018-09-27T05:21:20.943Z,7.75
2018-09-27T05:23:53.016Z,6.67
2018-09-27T05:26:25.143Z,7.65
2018-09-27T05:28:57.230Z,11.33
2018-09-27T05:31:29.399Z,7.55
2018-09-27T05:34:01.514Z,8.53
2018-09-27T05:36:33.683Z,8.75
2018-09-27T05:39:06.786Z,8.90
2018-09-27T05:41:38.996Z,7.42
2018-09-27T05:44:11.227Z,7.50
2018-09-27T05:46:43.394Z,8.90
2018-09-27T05:49:15.498Z,12.45
2018-09-27T05:51:47.660Z,12.95
2018-09-27T05:54:19.751Z,10.38
2018-09-27T05:56:51.892Z,7.78
2018-09-27T05:59:24.004Z,7.12
2018-09-27T06:01:56.281Z,10.93
2018-09-27T06:04:28.437Z,8.83
2018-09-27T06:07:00.686Z,8.58
2018-09-27T06:09:32.855Z,7.70
2018-09-27T06:12:04.975Z,8.00
2018-09-27T06:14:37.067Z,6.78
2018-09-27T06:17:09.152Z,9.80
2018-09-27T06:19:41.497Z,11.08
2018-09-27T06:22:13.680Z,6.53
2018-09-27T06:24:45.786Z,8.40
2018-09-27T06:27:17.933Z,11.18
2018-09-27T06:29:50.044Z,7.17
2018-09-27T06:32:22.172Z,7.85
2018-09-27T06:34:55.364Z,7.85
2018-09-27T06:37:27.498Z,6.80
2018-09-27T06:39:59.588Z,7.33
2018-09-27T06:42:31.656Z,10.65
2018-09-27T06:45:04.038Z,7.97
2018-09-27T06:47:36.147Z,7.55
2018-09-27T06:50:08.236Z,8.60
2018-09-27T06:52:40.329Z,8.13
2018-09-27T06:55:12.596Z,8.28
2018-09-27T06:57:44.559Z,10.23
2018-09-27T07:00:16.698Z,8.08
2018-09-27T07:02:48.835Z,8.90
2018-09-27T07:05:20.906Z,10.48
2018-09-27T07:07:53.056Z,7.75
2018-09-27T07:10:25.158Z,10.90
2018-09-27T07:12:57.251Z,5.97
2018-09-27T07:15:29.379Z,5.70
2018-09-27T07:18:01.923Z,5.47
2018-09-27T07:20:34.045Z,5.10
2018-09-27T07:23:06.235Z,6.83
2018-09-27T07:25:38.353Z,9.73
2018-09-27T07:28:10.416Z,6.53
2018-09-27T07:30:42.509Z,5.77
2018-09-27T07:33:14.572Z,4.40
2018-09-27T07:35:46.648Z,4.50
2018-09-27T07:38:18.826Z,6.03
2018-09-27T07:40:50.934Z,5.70
2018-09-27T07:43:23.038Z,6.17
2018-09-27T07:45:56.675Z,5.87
2018-09-27T07:48:28.873Z,5.43
2018-09-27T07:51:00.983Z,6.27
2018-09-27T07:53:33.075Z,6.03
2018-09-27T07:56:05.178Z,6.03
2018-09-27T07:58:37.275Z,8.10
2018-09-27T08:01:09.446Z,6.90
2018-09-27T08:03:41.644Z,6.40
2018-09-27T08:06:13.788Z,6.60
2018-09-27T08:08:46.315Z,6.20
2018-09-27T08:11:18.525Z,6.93
2018-09-27T08:13:50.615Z,7.03
2018-09-27T08:16:22.717Z,7.23
2018-09-27T08:18:54.819Z,7.33
2018-09-27T08:21:26.992Z,8.20
2018-09-27T08:23:59.120Z,7.87
2018-09-27T08:26:31.225Z,6.77
2018-09-27T08:29:03.388Z,7.97
2018-09-27T08:31:35.560Z,6.50
2018-09-27T08:34:07.661Z,7.83
2018-09-27T08:36:39.758Z,8.83
2018-09-27T08:39:12.382Z,7.83
2018-09-27T08:41:44.516Z,7.77
2018-09-27T08:44:16.628Z,8.00
2018-09-27T08:46:48.790Z,8.77
2018-09-27T08:49:20.907Z,7.20
2018-09-27T08:51:53.008Z,8.47
2018-09-27T08:54:25.131Z,7.80
2018-09-27T08:56:57.259Z,9.90
2018-09-27T08:59:29.403Z,8.80
2018-09-27T09:02:01.572Z,8.20
2018-09-27T09:04:33.701Z,10.20
2018-09-27T09:07:05.936Z,8.60
2018-09-27T09:09:38.086Z,9.00
2018-09-27T09:12:10.233Z,8.80
2018-09-27T09:14:42.328Z,8.70
2018-09-27T09:17:14.442Z,8.50
2018-09-27T09:19:46.545Z,10.50
2018-09-27T09:22:18.689Z,8.33
2018-09-27T09:24:50.832Z,8.80
2018-09-27T09:27:22.979Z,8.50
2018-09-27T09:29:55.053Z,9.60
2018-09-27T09:32:27.134Z,8.80
2018-09-27T09:34:59.256Z,8.70
2018-09-27T09:37:31.411Z,9.40
2018-09-27T09:40:03.606Z,8.47
2018-09-27T09:42:35.706Z,8.40
2018-09-27T09:45:07.880Z,9.93
2018-09-27T09:47:40.691Z,8.10
2018-09-27T09:50:12.779Z,9.50
2018-09-27T09:52:44.899Z,9.17
2018-09-27T09:55:17.016Z,8.83
2018-09-27T09:57:49.120Z,9.23
2018-09-27T10:00:21.597Z,9.13
2018-09-27T10:02:53.695Z,8.63
2018-09-27T10:05:25.823Z,11.67
2018-09-27T10:07:57.969Z,11.40
2018-09-27T10:10:30.099Z,10.27
2018-09-27T10:13:02.209Z,10.00
2018-09-27T10:15:34.296Z,10.23
2018-09-27T10:18:06.839Z,9.90
2018-09-27T10:20:39.007Z,10.93
2018-09-27T10:23:11.114Z,9.43
2018-09-27T10:25:43.235Z,9.00
2018-09-27T10:28:15.336Z,10.03
2018-09-27T10:30:47.425Z,12.63
2018-09-27T10:33:19.518Z,9.70
2018-09-27T10:35:52.078Z,10.13
2018-09-27T10:38:24.337Z,10.13
2018-09-27T10:40:56.407Z,10.67
2018-09-27T10:43:28.507Z,10.93
2018-09-27T10:46:00.571Z,10.13
2018-09-27T10:48:32.614Z,12.30
2018-09-27T10:51:04.706Z,11.53
2018-09-27T10:53:36.732Z,11.40
2018-09-27T10:56:08.818Z,9.23
2018-09-27T10:58:41.075Z,10.33
2018-09-27T11:01:13.159Z,10.70
2018-09-27T11:03:45.167Z,9.70
2018-09-27T11:06:17.224Z,10.50
2018-09-27T11:08:49.287Z,11.47
2018-09-27T11:11:21.398Z,10.10
2018-09-27T11:13:53.476Z,12.13
2018-09-27T11:16:25.560Z,12.43
2018-09-27T11:18:57.647Z,9.63
2018-09-27T11:21:29.719Z,14.53
2018-09-27T11:24:01.804Z,11.40
2018-09-27T11:26:33.872Z,11.43
2018-09-27T11:29:11.632Z,9.60
2018-09-27T11:31:49.359Z,10.63
2018-09-27T11:34:21.420Z,10.57
2018-09-27T11:36:53.471Z,10.67
2018-09-27T11:39:25.596Z,9.80
2018-09-27T11:41:57.649Z,11.77
2018-09-27T11:44:29.716Z,13.33
2018-09-27T11:47:01.758Z,10.70
2018-09-27T11:49:33.850Z,11.40
2018-09-27T11:52:05.911Z,10.43
2018-09-27T11:54:37.943Z,13.30
2018-09-27T11:57:09.998Z,10.97
2018-09-27T11:59:42.018Z,12.10
2018-09-27T12:02:14.096Z,11.50
2018-09-27T12:04:46.151Z,11.07
2018-09-27T12:07:18.517Z,17.00
2018-09-27T12:09:50.513Z,14.20
2018-09-27T12:12:23.631Z,13.17
2018-09-27T12:14:55.860Z,12.80
2018-09-27T12:17:27.940Z,14.07
2018-09-27T12:19:59.981Z,12.27
2018-09-27T12:22:32.086Z,13.13
2018-09-27T12:25:04.740Z,10.47
2018-09-27T12:27:36.811Z,13.47
2018-09-27T12:30:08.844Z,15.17
2018-09-27T12:32:41.020Z,10.33
2018-09-27T12:35:13.027Z,13.30
2018-09-27T12:37:45.130Z,11.47
2018-09-27T12:40:17.167Z,13.03
2018-09-27T12:42:49.290Z,13.70
2018-09-27T12:45:21.333Z,13.40
2018-09-27T12:47:53.636Z,15.47
2018-09-27T12:50:25.690Z,18.00
2018-09-27T12:52:57.835Z,11.60
2018-09-27T12:55:29.896Z,11.07
2018-09-27T12:58:01.984Z,12.50
2018-09-27T13:00:34.028Z,11.87
2018-09-27T13:03:06.152Z,11.03
2018-09-27T13:05:38.198Z,12.13
2018-09-27T13:08:10.227Z,11.60
2018-09-27T13:10:42.347Z,16.97
2018-09-27T13:13:14.488Z,15.07
2018-09-27T13:15:46.432Z,13.90
2018-09-27T13:18:18.485Z,10.90
2018-09-27T13:20:50.505Z,14.20
2018-09-27T13:23:22.571Z,13.50
2018-09-27T13:25:54.631Z,12.37
2018-09-27T13:28:26.751Z,11.87
2018-09-27T13:30:58.876Z,10.30
2018-09-27T13:33:30.887Z,11.97
2018-09-27T13:36:03.052Z,11.47
2018-09-27T13:38:35.165Z,14.40
2018-09-27T13:41:07.275Z,14.90
2018-09-27T13:43:39.322Z,13.40
2018-09-27T13:46:11.384Z,12.20
2018-09-27T13:48:43.475Z,10.50
2018-09-27T13:51:15.569Z,9.80
2018-09-27T13:53:47.708Z,10.47
2018-09-27T13:56:19.807Z,9.80
2018-09-27T13:58:51.981Z,10.70
2018-09-27T14:01:24.089Z,10.53
2018-09-27T14:03:56.243Z,11.00
2018-09-27T14:06:28.394Z,10.40
2018-09-27T14:09:00.503Z,8.77
2018-09-27T14:11:32.575Z,9.87
2018-09-27T14:14:04.774Z,10.70
2018-09-27T14:16:36.907Z,9.23
2018-09-27T14:19:09.132Z,10.30
2018-09-27T14:21:41.211Z,10.00
2018-09-27T14:24:13.312Z,9.47
2018-09-27T14:26:45.441Z,10.20
2018-09-27T14:29:17.652Z,6.77
2018-09-27T14:31:49.727Z,12.63
2018-09-27T14:34:21.801Z,8.93
2018-09-27T14:36:53.926Z,8.53
2018-09-27T14:39:26.001Z,9.17
2018-09-27T14:41:58.051Z,10.03
2018-09-27T14:44:30.135Z,11.13
2018-09-27T14:47:02.166Z,9.40
2018-09-27T14:49:34.266Z,7.60
2018-09-27T14:52:06.452Z,11.07
2018-09-27T14:54:38.715Z,10.33
2018-09-27T14:57:10.794Z,10.40
2018-09-27T14:59:42.936Z,9.57
2018-09-27T15:02:15.059Z,8.53
2018-09-27T15:04:47.066Z,9.83
2018-09-27T15:07:19.165Z,10.27
2018-09-27T15:09:51.311Z,9.67
2018-09-27T15:12:23.356Z,10.30
2018-09-27T15:14:55.540Z,8.97
2018-09-27T15:17:27.633Z,8.70
2018-09-27T15:19:59.699Z,7.87
2018-09-27T15:22:31.806Z,8.80
2018-09-27T15:25:04.058Z,12.60
2018-09-27T15:27:36.241Z,9.10
2018-09-27T15:30:08.317Z,8.60
2018-09-27T15:32:40.488Z,9.87
2018-09-27T15:35:12.569Z,7.43
2018-09-27T15:37:44.696Z,9.87
2018-09-27T15:40:16.803Z,10.50
2018-09-27T15:42:48.840Z,8.03
2018-09-27T15:45:20.929Z,9.70
2018-09-27T15:47:53.007Z,8.40
2018-09-27T15:50:25.135Z,9.57
2018-09-27T15:52:57.200Z,7.90
2018-09-27T15:55:29.303Z,9.63
2018-09-27T15:58:01.425Z,12.20
2018-09-27T16:00:33.536Z,12.83
2018-09-27T16:03:05.775Z,7.10
2018-09-27T16:05:37.838Z,7.13
2018-09-27T16:08:09.911Z,6.20
2018-09-27T16:10:42.177Z,6.50
2018-09-27T16:13:14.288Z,7.67
2018-09-27T16:15:46.435Z,6.27
2018-09-27T16:18:18.547Z,6.27
2018-09-27T16:20:50.615Z,6.60
2018-09-27T16:23:23.764Z,5.10
2018-09-27T16:25:56.470Z,6.70
2018-09-27T16:28:28.601Z,5.07
2018-09-27T16:31:00.736Z,5.60
2018-09-27T16:33:32.875Z,6.63
2018-09-27T16:36:05.120Z,5.63
2018-09-27T16:38:37.284Z,5.10
2018-09-27T16:41:09.451Z,5.43
2018-09-27T16:43:41.529Z,7.27
2018-09-27T16:46:13.595Z,4.40
2018-09-27T16:48:45.696Z,4.47
2018-09-27T16:51:17.801Z,7.10
2018-09-27T16:53:49.895Z,6.17
2018-09-27T16:56:21.968Z,6.00
2018-09-27T16:58:54.029Z,6.33
2018-09-27T17:01:26.955Z,6.53
2018-09-27T17:03:58.992Z,9.70
2018-09-27T17:06:31.016Z,4.90
2018-09-27T17:09:03.767Z,7.50
2018-09-27T17:11:35.937Z,7.73
2018-09-27T17:14:07.990Z,5.90
2018-09-27T17:16:40.198Z,5.63
2018-09-27T17:19:12.219Z,6.20
2018-09-27T17:21:44.299Z,8.87
2018-09-27T17:24:16.352Z,8.80
2018-09-27T17:26:49.269Z,6.70
2018-09-27T17:29:21.377Z,5.10
2018-09-27T17:31:53.486Z,6.43
2018-09-27T17:34:25.546Z,5.53
2018-09-27T17:36:58.376Z,8.20
2018-09-27T17:39:30.484Z,5.97
2018-09-27T17:42:02.603Z,6.57
2018-09-27T17:44:34.632Z,8.17
2018-09-27T17:47:06.730Z,7.43
2018-09-27T17:49:38.815Z,4.70
2018-09-27T17:52:10.871Z,7.33
2018-09-27T17:54:43.017Z,7.30
2018-09-27T17:57:19.484Z,6.43
2018-09-27T17:59:53.019Z,6.33
2018-09-27T18:02:25.083Z,7.80
2018-09-27T18:04:57.137Z,8.53
2018-09-27T18:07:29.243Z,8.37
2018-09-27T18:10:01.273Z,7.33
2018-09-27T18:12:33.321Z,9.10
2018-09-27T18:15:05.480Z,8.57
2018-09-27T18:17:37.564Z,13.27
2018-09-27T18:20:09.647Z,9.10
2018-09-27T18:22:41.784Z,8.30
2018-09-27T18:25:13.823Z,13.40
2018-09-27T18:27:45.873Z,7.77
2018-09-27T18:30:17.973Z,7.97
2018-09-27T18:32:50.035Z,7.80
2018-09-27T18:35:22.124Z,8.00
2018-09-27T18:37:54.331Z,10.37
2018-09-27T18:40:26.579Z,7.83
2018-09-27T18:42:59.035Z,9.23
2018-09-27T18:45:31.437Z,12.07
2018-09-27T18:48:03.920Z,13.37
2018-09-27T18:50:36.028Z,8.10
2018-09-27T18:53:08.096Z,10.10
2018-09-27T18:55:40.218Z,10.63
2018-09-27T18:58:12.376Z,9.40
2018-09-27T19:00:44.434Z,8.97
2018-09-27T19:03:16.564Z,8.60
2018-09-27T19:05:48.648Z,9.77
2018-09-27T19:08:20.827Z,16.80
2018-09-27T19:10:52.899Z,13.13
2018-09-27T19:13:24.972Z,10.67
2018-09-27T19:15:57.056Z,9.00
2018-09-27T19:18:29.162Z,10.00
2018-09-27T19:21:01.288Z,9.87
2018-09-27T19:23:33.396Z,16.53
2018-09-27T19:26:05.469Z,8.13
2018-09-27T19:28:37.536Z,8.73
2018-09-27T19:31:09.647Z,7.03
2018-09-27T19:33:41.769Z,7.20
2018-09-27T19:36:13.842Z,6.63
2018-09-27T19:38:45.949Z,7.60
2018-09-27T19:41:18.072Z,5.80
2018-09-27T19:43:50.151Z,11.00
2018-09-27T19:46:22.240Z,9.60
2018-09-27T19:48:54.335Z,6.73
2018-09-27T19:51:26.469Z,6.00
2018-09-27T19:53:58.549Z,6.30
2018-09-27T19:56:30.676Z,7.50
2018-09-27T19:59:02.748Z,6.40
2018-09-27T20:01:34.855Z,4.77
2018-09-27T20:04:07.060Z,9.73
2018-09-27T20:06:39.157Z,5.97
2018-09-27T20:09:12.824Z,7.60
2018-09-27T20:11:44.893Z,6.90
2018-09-27T20:14:16.956Z,8.23
2018-09-27T20:16:49.201Z,9.97
2018-09-27T20:19:21.285Z,9.50
2018-09-27T20:21:53.560Z,10.10
2018-09-27T20:24:25.647Z,8.90
2018-09-27T20:26:57.715Z,11.20
2018-09-27T20:29:29.749Z,8.80
2018-09-27T20:32:01.872Z,6.75
2018-09-27T20:34:34.051Z,5.83
2018-09-27T20:37:06.114Z,6.10
2018-09-27T20:39:38.200Z,7.58
2018-09-27T20:42:10.288Z,6.85
2018-09-27T20:44:42.370Z,8.30
2018-09-27T20:47:14.432Z,6.60
2018-09-27T20:49:46.481Z,7.30
2018-09-27T20:52:18.619Z,7.30
2018-09-27T20:54:50.712Z,9.10
2018-09-27T20:57:22.739Z,6.42
2018-09-27T20:59:54.845Z,5.87
2018-09-27T21:02:26.893Z,5.20
2018-09-27T21:04:58.981Z,6.07
2018-09-27T21:07:31.072Z,6.17
2018-09-27T21:10:03.159Z,7.42
2018-09-27T21:12:35.269Z,5.83
2018-09-27T21:15:07.412Z,6.50
2018-09-27T21:17:39.555Z,6.20
2018-09-27T21:20:11.596Z,5.87
2018-09-27T21:22:43.644Z,6.60
2018-09-27T21:25:15.709Z,6.03
2018-09-27T21:27:47.840Z,6.45
2018-09-27T21:30:19.911Z,6.25
2018-09-27T21:32:51.957Z,6.20
2018-09-27T21:35:24.021Z,5.30
2018-09-27T21:37:56.088Z,5.55
2018-09-27T21:40:28.142Z,6.35
2018-09-27T21:43:00.229Z,8.18
2018-09-27T21:45:32.322Z,5.37
2018-09-27T21:48:04.359Z,5.87
2018-09-27T21:50:36.432Z,5.87
2018-09-27T21:53:08.476Z,6.60
2018-09-27T21:55:40.536Z,6.47
2018-09-27T21:58:12.634Z,6.78
2018-09-27T22:00:44.674Z,6.03
2018-09-27T22:03:16.740Z,5.28
2018-09-27T22:05:48.825Z,6.62
2018-09-27T22:08:20.866Z,5.40
2018-09-27T22:10:52.959Z,6.95
2018-09-27T22:13:25.006Z,7.45
2018-09-27T22:15:57.083Z,6.22
2018-09-27T22:18:29.160Z,5.20
2018-09-27T22:21:01.231Z,10.20
2018-09-27T22:23:33.304Z,6.58
2018-09-27T22:26:05.364Z,6.08
2018-09-27T22:28:37.391Z,5.85
2018-09-27T22:31:09.468Z,5.85
2018-09-27T22:33:41.519Z,5.53
2018-09-27T22:36:13.529Z,6.37
2018-09-27T22:38:45.605Z,5.80
2018-09-27T22:41:17.681Z,6.22
2018-09-27T22:43:49.884Z,7.08
2018-09-27T22:46:22.013Z,5.67
2018-09-27T22:48:54.075Z,7.12
2018-09-27T22:51:26.183Z,5.37
2018-09-27T22:53:58.253Z,7.08
2018-09-27T22:56:30.318Z,5.45
2018-09-27T22:59:02.338Z,6.30
2018-09-27T23:01:34.402Z,5.87
2018-09-27T23:04:06.463Z,6.10
2018-09-27T23:06:38.527Z,9.58
2018-09-27T23:09:10.564Z,5.30
2018-09-27T23:11:42.623Z,6.87
2018-09-27T23:14:14.696Z,7.00
2018-09-27T23:16:46.775Z,6.62
2018-09-27T23:19:18.860Z,6.53
2018-09-27T23:21:50.982Z,5.35
2018-09-27T23:24:23.028Z,5.92
2018-09-27T23:26:55.096Z,7.20
2018-09-27T23:29:27.163Z,5.92
2018-09-27T23:31:59.244Z,5.50
2018-09-27T23:34:31.404Z,6.17
2018-09-27T23:37:03.490Z,5.70
2018-09-27T23:39:35.581Z,6.53
2018-09-27T23:42:07.707Z,6.22
2018-09-27T23:44:39.756Z,6.25
2018-09-27T23:47:11.827Z,6.12
2018-09-27T23:49:43.892Z,6.62
2018-09-27T23:52:15.975Z,6.28
2018-09-27T23:54:48.048Z,5.72
2018-09-27T23:57:20.112Z,5.97
2018-09-27T23:59:52.173Z,6.87
